createdAt,value
2022-07-27T00:05:40.789Z,97435.28
2022-07-27T00:08:43.556Z,97431.78
2022-07-27T00:11:46.340Z,97434.38
2022-07-27T00:14:49.090Z,97428.84
2022-07-27T00:17:51.850Z,97434.38
2022-07-27T00:20:56.138Z,97445.47
2022-07-27T00:23:58.872Z,97439.28
2022-07-27T00:27:01.578Z,97431.91
2022-07-27T00:30:05.091Z,97432.47
2022-07-27T00:33:08.008Z,97431.00
2022-07-27T00:36:12.130Z,97438.69
2022-07-27T00:39:15.019Z,97440.22
2022-07-27T00:42:21.142Z,97437.69
2022-07-27T00:45:23.884Z,97437.16
2022-07-27T00:48:29.200Z,97425.25
2022-07-27T00:51:33.580Z,97431.44
2022-07-27T00:54:36.364Z,97429.53
2022-07-27T00:57:59.165Z,97428.13
2022-07-27T01:01:02.072Z,97435.59
2022-07-27T01:04:06.166Z,97432.59
2022-07-27T01:07:10.620Z,97439.47
2022-07-27T01:10:13.652Z,97438.50
2022-07-27T01:13:17.379Z,97436.13
2022-07-27T01:16:21.136Z,97436.78
2022-07-27T01:19:23.894Z,97438.31
2022-07-27T01:22:28.043Z,97448.03
2022-07-27T01:25:30.737Z,97451.28
2022-07-27T01:28:33.485Z,97451.22
2022-07-27T01:31:36.261Z,97453.22
2022-07-27T01:34:39.207Z,97453.66
2022-07-27T01:37:47.625Z,97456.78
2022-07-27T01:40:51.448Z,97460.44
2022-07-27T01:43:54.186Z,97458.06
2022-07-27T01:46:56.928Z,97442.16
2022-07-27T01:49:59.713Z,97435.69
2022-07-27T01:53:03.870Z,97433.19
2022-07-27T01:56:10.838Z,97427.38
2022-07-27T01:59:15.993Z,97421.22
2022-07-27T02:02:19.774Z,97414.72
2022-07-27T02:05:22.742Z,97420.31
2022-07-27T02:08:26.948Z,97425.25
2022-07-27T02:11:47.994Z,97425.28
2022-07-27T02:14:50.769Z,97415.84
2022-07-27T02:17:54.932Z,97420.69
2022-07-27T02:20:57.666Z,97417.78
2022-07-27T02:24:01.737Z,97423.41
2022-07-27T02:27:04.582Z,97421.00
2022-07-27T02:30:08.682Z,97412.00
2022-07-27T02:33:11.594Z,97421.88
2022-07-27T02:36:14.337Z,97416.13
2022-07-27T02:39:18.410Z,97416.56
2022-07-27T02:42:21.991Z,97417.66
2022-07-27T02:45:24.836Z,97425.03
2022-07-27T02:48:27.567Z,97417.91
2022-07-27T02:51:30.264Z,97422.59
2022-07-27T02:54:34.938Z,97445.97
2022-07-27T02:57:41.195Z,97451.69
2022-07-27T03:00:44.200Z,97443.31
2022-07-27T03:03:47.300Z,97436.72
2022-07-27T03:06:50.199Z,97438.56
2022-07-27T03:09:54.227Z,97444.06
2022-07-27T03:12:57.004Z,97443.66
2022-07-27T03:15:59.764Z,97439.97
2022-07-27T03:19:02.731Z,97444.91
2022-07-27T03:22:05.504Z,97435.06
2022-07-27T03:25:10.838Z,97447.81
2022-07-27T03:28:13.655Z,97436.00
2022-07-27T03:31:16.535Z,97442.53
2022-07-27T03:34:19.362Z,97444.31
2022-07-27T03:37:22.095Z,97453.25
2022-07-27T03:40:26.180Z,97445.94
2022-07-27T03:43:28.941Z,97440.69
2022-07-27T03:46:31.752Z,97449.28
2022-07-27T03:49:34.550Z,97455.59
2022-07-27T03:52:37.360Z,97443.78
2022-07-27T03:55:41.513Z,97415.59
2022-07-27T03:58:44.521Z,97410.13
2022-07-27T04:01:47.464Z,97429.94
2022-07-27T04:04:50.248Z,97431.25
2022-07-27T04:07:54.941Z,97438.41
2022-07-27T04:10:59.213Z,97449.06
2022-07-27T04:14:03.375Z,97448.25
2022-07-27T04:17:06.569Z,97431.72
2022-07-27T04:20:10.576Z,97425.00
2022-07-27T04:23:13.316Z,97439.06
2022-07-27T04:26:17.517Z,97455.41
2022-07-27T04:29:21.238Z,97454.22
2022-07-27T04:32:24.467Z,97461.97
2022-07-27T04:35:27.392Z,97455.84
2022-07-27T04:38:30.375Z,97456.88
2022-07-27T04:41:34.586Z,97469.72
2022-07-27T04:44:37.351Z,97483.19
2022-07-27T04:47:40.095Z,97480.34
2022-07-27T04:50:43.643Z,97479.09
2022-07-27T04:53:52.394Z,97469.31
2022-07-27T04:57:02.185Z,97478.28
2022-07-27T05:00:05.873Z,97481.94
2022-07-27T05:03:09.255Z,97481.94
2022-07-27T05:06:12.012Z,97481.72
2022-07-27T05:09:15.033Z,97488.88
2022-07-27T05:12:26.528Z,97497.00
2022-07-27T05:15:29.410Z,97499.88
2022-07-27T05:18:52.098Z,97510.88
2022-07-27T05:21:54.917Z,97500.28
2022-07-27T05:24:57.653Z,97498.66
2022-07-27T05:28:01.708Z,97499.66
2022-07-27T05:31:04.454Z,97499.91
2022-07-27T05:34:07.204Z,97500.31
2022-07-27T05:37:10.377Z,97498.06
2022-07-27T05:40:13.785Z,97504.38
2022-07-27T05:43:17.903Z,97513.75
2022-07-27T05:46:21.085Z,97514.78
2022-07-27T05:49:24.077Z,97520.09
2022-07-27T05:52:26.886Z,97517.63
2022-07-27T05:55:29.633Z,97525.81
2022-07-27T05:58:33.783Z,97531.72
2022-07-27T06:01:36.723Z,97534.53
2022-07-27T06:04:39.547Z,97536.34
2022-07-27T06:08:00.414Z,97541.09
2022-07-27T06:11:03.415Z,97545.13
2022-07-27T06:14:07.538Z,97543.47
2022-07-27T06:17:11.328Z,97547.16
2022-07-27T06:20:14.668Z,97555.69
2022-07-27T06:23:17.372Z,97557.97
2022-07-27T06:26:20.131Z,97567.53
2022-07-27T06:29:24.196Z,97558.53
2022-07-27T06:32:26.997Z,97565.50
2022-07-27T06:35:29.776Z,97568.38
2022-07-27T06:38:33.769Z,97566.56
2022-07-27T06:41:36.494Z,97568.81
2022-07-27T06:44:43.244Z,97567.59
2022-07-27T06:47:49.327Z,97570.03
2022-07-27T06:50:53.643Z,97567.97
2022-07-27T06:53:56.457Z,97563.91
2022-07-27T06:56:59.489Z,97568.78
2022-07-27T07:00:03.782Z,97569.63
2022-07-27T07:03:07.525Z,97568.19
2022-07-27T07:06:10.472Z,97576.56
2022-07-27T07:09:13.643Z,97572.25
2022-07-27T07:12:18.406Z,97588.09
2022-07-27T07:15:22.722Z,97582.63
2022-07-27T07:18:28.291Z,97587.50
2022-07-27T07:21:31.961Z,97589.97
2022-07-27T07:24:34.887Z,97592.31
2022-07-27T07:27:38.038Z,97595.22
2022-07-27T07:30:42.791Z,97597.06
2022-07-27T07:33:46.191Z,97602.19
2022-07-27T07:36:48.923Z,97605.84
2022-07-27T07:39:51.708Z,97601.38
2022-07-27T07:42:57.349Z,97600.59
2022-07-27T07:46:01.415Z,97603.06
2022-07-27T07:49:04.467Z,97600.44
2022-07-27T07:52:07.869Z,97612.47
2022-07-27T07:55:11.712Z,97605.16
2022-07-27T07:58:14.498Z,97618.00
2022-07-27T08:01:18.572Z,97609.25
2022-07-27T08:04:21.307Z,97618.63
2022-07-27T08:07:24.101Z,97627.63
2022-07-27T08:10:28.347Z,97645.34
2022-07-27T08:13:31.155Z,97645.56
2022-07-27T08:16:35.311Z,97643.72
2022-07-27T08:19:40.230Z,97647.22
2022-07-27T08:22:44.342Z,97644.16
2022-07-27T08:25:48.356Z,97650.41
2022-07-27T08:28:51.106Z,97647.41
2022-07-27T08:31:55.345Z,97652.94
2022-07-27T08:34:59.003Z,97659.03
2022-07-27T08:38:03.895Z,97660.47
2022-07-27T08:41:09.005Z,97660.25
2022-07-27T08:44:15.122Z,97664.34
2022-07-27T08:47:22.855Z,97652.53
2022-07-27T08:50:27.613Z,97657.84
2022-07-27T08:53:42.030Z,97654.38
2022-07-27T08:56:55.810Z,97656.63
2022-07-27T08:59:59.111Z,97673.59
2022-07-27T09:03:04.174Z,97663.56
2022-07-27T09:06:07.173Z,97661.16
2022-07-27T09:09:10.932Z,97667.66
2022-07-27T09:12:14.682Z,97662.19
2022-07-27T09:15:18.121Z,97665.00
2022-07-27T09:18:24.349Z,97662.72
2022-07-27T09:21:28.359Z,97666.47
2022-07-27T09:24:46.438Z,97661.94
2022-07-27T09:27:54.814Z,97664.78
2022-07-27T09:31:07.506Z,97665.03
2022-07-27T09:34:13.046Z,97666.44
2022-07-27T09:37:25.076Z,97663.97
2022-07-27T09:40:28.265Z,97671.28
2022-07-27T09:46:58.650Z,97671.09
2022-07-27T09:50:20.525Z,97675.16
2022-07-27T09:53:42.324Z,97674.38
2022-07-27T09:56:46.434Z,97669.44
2022-07-27T09:59:49.563Z,97673.69
2022-07-27T10:02:54.396Z,97669.81
2022-07-27T10:06:00.386Z,97673.25
2022-07-27T10:09:04.023Z,97669.97
2022-07-27T10:12:08.132Z,97666.28
2022-07-27T10:15:16.298Z,97668.31
2022-07-27T10:18:29.015Z,97668.13
2022-07-27T10:21:35.345Z,97663.41
2022-07-27T10:24:38.601Z,97665.81
2022-07-27T10:27:41.747Z,97668.69
2022-07-27T10:30:47.246Z,97661.19
2022-07-27T10:33:56.722Z,97655.25
2022-07-27T10:37:09.822Z,97661.16
2022-07-27T10:40:35.230Z,97660.91
2022-07-27T10:43:38.031Z,97665.47
2022-07-27T10:46:44.227Z,97657.66
2022-07-27T10:49:47.000Z,97652.59
2022-07-27T10:52:53.188Z,97647.84
2022-07-27T10:55:56.152Z,97664.06
2022-07-27T10:59:01.258Z,97656.91
2022-07-27T11:02:07.089Z,97657.25
2022-07-27T11:05:32.890Z,97662.38
2022-07-27T11:08:46.658Z,97652.38
2022-07-27T11:11:50.754Z,97646.44
2022-07-27T11:14:56.074Z,97644.03
2022-07-27T11:18:03.411Z,97649.03
2022-07-27T11:21:16.292Z,97651.47
2022-07-27T11:24:23.549Z,97650.91
2022-07-27T11:27:26.508Z,97650.88
2022-07-27T11:30:30.357Z,97654.09
2022-07-27T11:33:34.116Z,97648.19
2022-07-27T11:36:42.550Z,97638.19
2022-07-27T11:40:00.368Z,97640.66
2022-07-27T11:43:05.921Z,97639.03
2022-07-27T11:46:14.487Z,97631.09
2022-07-27T11:49:21.570Z,97627.53
2022-07-27T11:52:25.763Z,97627.88
2022-07-27T11:55:29.857Z,97623.56
2022-07-27T11:58:32.830Z,97630.63
2022-07-27T12:01:38.697Z,97625.97
2022-07-27T12:04:42.865Z,97626.13
2022-07-27T12:07:45.708Z,97624.25
2022-07-27T12:11:02.031Z,97626.66
2022-07-27T12:14:12.809Z,97631.88
2022-07-27T12:17:19.028Z,97624.50
2022-07-27T12:20:24.236Z,97636.19
2022-07-27T12:23:30.566Z,97621.38
2022-07-27T12:26:34.707Z,97626.41
2022-07-27T12:30:00.295Z,97619.56
2022-07-27T12:33:04.690Z,97611.41
2022-07-27T12:36:09.041Z,97615.91
2022-07-27T12:39:26.685Z,97614.56
2022-07-27T12:42:37.608Z,97614.75
2022-07-27T12:45:40.677Z,97608.63
2022-07-27T12:48:44.033Z,97609.13
2022-07-27T12:51:46.767Z,97614.75
2022-07-27T12:54:49.449Z,97609.22
2022-07-27T12:57:56.567Z,97606.94
2022-07-27T13:01:00.050Z,97609.63
2022-07-27T13:04:02.892Z,97601.06
2022-07-27T13:07:05.684Z,97602.44
2022-07-27T13:10:11.901Z,97613.28
2022-07-27T13:13:15.988Z,97606.53
2022-07-27T13:16:18.805Z,97604.78
2022-07-27T13:19:21.668Z,97605.94
2022-07-27T13:22:24.520Z,97614.06
2022-07-27T13:25:27.490Z,97610.13
2022-07-27T13:28:31.536Z,97615.13
2022-07-27T13:31:34.704Z,97608.84
2022-07-27T13:34:37.488Z,97610.25
2022-07-27T13:37:42.201Z,97605.00
2022-07-27T13:40:45.047Z,97598.41
2022-07-27T13:43:49.063Z,97603.84
2022-07-27T13:46:52.166Z,97598.16
2022-07-27T13:49:56.849Z,97593.63
2022-07-27T13:52:59.582Z,97595.34
2022-07-27T13:56:03.101Z,97602.41
2022-07-27T13:59:07.993Z,97598.59
2022-07-27T14:02:11.581Z,97598.63
2022-07-27T14:05:15.959Z,97586.31
2022-07-27T14:08:20.998Z,97593.25
2022-07-27T14:11:23.896Z,97592.56
2022-07-27T14:14:27.951Z,97599.56
2022-07-27T14:17:30.681Z,97601.06
2022-07-27T14:20:33.923Z,97592.56
2022-07-27T14:23:38.018Z,97583.50
2022-07-27T14:26:40.828Z,97586.63
2022-07-27T14:29:44.959Z,97579.16
2022-07-27T14:32:47.657Z,97581.19
2022-07-27T14:35:50.611Z,97583.25
2022-07-27T14:38:53.534Z,97582.47
2022-07-27T14:41:56.248Z,97580.72
2022-07-27T14:45:00.361Z,97582.94
2022-07-27T14:48:03.183Z,97583.28
2022-07-27T14:51:06.133Z,97578.41
2022-07-27T14:54:08.900Z,97577.94
2022-07-27T14:57:11.677Z,97583.28
2022-07-27T15:00:17.701Z,97585.31
2022-07-27T15:03:21.234Z,97580.41
2022-07-27T15:06:24.204Z,97584.34
2022-07-27T15:09:28.509Z,97578.91
2022-07-27T15:12:33.775Z,97576.19
2022-07-27T15:15:41.754Z,97577.69
2022-07-27T15:18:45.681Z,97585.25
2022-07-27T15:21:48.638Z,97580.72
2022-07-27T15:24:52.612Z,97584.13
2022-07-27T15:27:55.309Z,97581.69
2022-07-27T15:30:59.455Z,97584.59
2022-07-27T15:34:02.271Z,97579.28
2022-07-27T15:37:07.493Z,97583.41
2022-07-27T15:40:29.381Z,97580.41
2022-07-27T15:43:32.131Z,97575.34
2022-07-27T15:46:36.394Z,97577.44
2022-07-27T15:49:39.136Z,97578.00
2022-07-27T15:52:41.883Z,97576.59
2022-07-27T15:55:45.751Z,97575.56
2022-07-27T15:58:48.478Z,97575.91
2022-07-27T16:01:52.553Z,97567.84
2022-07-27T16:04:56.483Z,97563.88
2022-07-27T16:07:59.198Z,97561.19
2022-07-27T16:11:01.952Z,97565.88
2022-07-27T16:14:04.704Z,97557.50
2022-07-27T16:17:08.783Z,97556.56
2022-07-27T16:20:12.122Z,97546.09
2022-07-27T16:23:21.183Z,97554.69
2022-07-27T16:26:25.246Z,97547.25
2022-07-27T16:29:28.437Z,97537.94
2022-07-27T16:32:32.551Z,97534.41
2022-07-27T16:35:35.256Z,97535.84
2022-07-27T16:38:39.133Z,97543.38
2022-07-27T16:41:53.072Z,97547.22
2022-07-27T16:44:56.362Z,97541.66
2022-07-27T16:48:00.656Z,97542.34
2022-07-27T16:51:03.630Z,97546.31
2022-07-27T16:54:09.173Z,97539.47
2022-07-27T16:57:11.885Z,97548.22
2022-07-27T17:00:16.341Z,97539.16
2022-07-27T17:03:20.856Z,97536.34
2022-07-27T17:06:24.415Z,97536.81
2022-07-27T17:09:28.634Z,97532.19
2022-07-27T17:12:38.122Z,97531.00
2022-07-27T17:15:42.101Z,97536.72
2022-07-27T17:18:46.303Z,97533.69
2022-07-27T17:21:49.061Z,97531.84
2022-07-27T17:24:51.822Z,97534.50
2022-07-27T17:27:54.524Z,97542.41
2022-07-27T17:30:57.321Z,97531.38
2022-07-27T17:34:01.589Z,97531.47
2022-07-27T17:37:04.396Z,97527.66
2022-07-27T17:40:08.082Z,97532.63
2022-07-27T17:43:10.900Z,97528.34
2022-07-27T17:46:13.815Z,97525.34
2022-07-27T17:49:18.624Z,97535.88
2022-07-27T17:52:22.363Z,97541.56
2022-07-27T17:55:25.412Z,97543.63
2022-07-27T17:58:30.438Z,97547.13
2022-07-27T18:01:47.401Z,97552.00
2022-07-27T18:04:52.835Z,97555.56
2022-07-27T18:07:55.608Z,97553.94
2022-07-27T18:10:58.444Z,97560.53
2022-07-27T18:14:01.252Z,97562.16
2022-07-27T18:17:03.977Z,97569.91
2022-07-27T18:20:10.576Z,97563.94
2022-07-27T18:23:14.159Z,97561.94
2022-07-27T18:26:17.006Z,97563.78
2022-07-27T18:29:19.718Z,97572.81
2022-07-27T18:32:22.420Z,97578.56
2022-07-27T18:35:26.573Z,97577.88
2022-07-27T18:38:29.289Z,97582.88
2022-07-27T18:41:32.253Z,97577.28
2022-07-27T18:44:39.132Z,97588.81
2022-07-27T18:47:41.938Z,97583.63
2022-07-27T18:50:53.936Z,97580.16
2022-07-27T18:53:56.674Z,97592.06
2022-07-27T18:56:59.932Z,97588.66
2022-07-27T19:00:02.962Z,97592.22
2022-07-27T19:03:06.128Z,97597.16
2022-07-27T19:06:17.911Z,97598.06
2022-07-27T19:09:21.497Z,97615.22
2022-07-27T19:12:24.430Z,97608.69
2022-07-27T19:15:27.369Z,97604.59
2022-07-27T19:18:30.107Z,97605.47
2022-07-27T19:21:34.163Z,97604.72
2022-07-27T19:24:36.884Z,97605.81
2022-07-27T19:27:42.895Z,97606.72
2022-07-27T19:30:46.462Z,97602.16
2022-07-27T19:33:49.203Z,97607.88
2022-07-27T19:36:53.268Z,97610.00
2022-07-27T19:40:02.361Z,97609.59
2022-07-27T19:43:12.465Z,97614.13
2022-07-27T19:46:15.347Z,97623.53
2022-07-27T19:49:18.698Z,97626.56
2022-07-27T19:52:23.126Z,97627.22
2022-07-27T19:55:25.988Z,97629.88
2022-07-27T19:58:28.746Z,97620.69
2022-07-27T20:01:31.502Z,97628.84
2022-07-27T20:04:37.275Z,97630.06
2022-07-27T20:07:46.508Z,97640.28
2022-07-27T20:10:49.304Z,97635.03
2022-07-27T20:13:52.140Z,97636.63
2022-07-27T20:16:54.909Z,97639.06
2022-07-27T20:19:57.662Z,97645.41
2022-07-27T20:23:01.767Z,97641.91
2022-07-27T20:26:04.586Z,97644.97
2022-07-27T20:29:07.690Z,97649.69
2022-07-27T20:32:10.390Z,97643.06
2022-07-27T20:35:13.122Z,97655.69
2022-07-27T20:38:17.182Z,97657.50
2022-07-27T20:41:19.938Z,97657.84
2022-07-27T20:44:22.791Z,97658.16
2022-07-27T20:47:27.827Z,97655.75
2022-07-27T20:50:32.606Z,97658.09
2022-07-27T20:53:36.647Z,97666.78
2022-07-27T20:56:39.402Z,97666.06
2022-07-27T20:59:42.120Z,97671.88
2022-07-27T21:02:45.184Z,97677.03
2022-07-27T21:05:47.960Z,97675.19
2022-07-27T21:08:52.228Z,97683.59
2022-07-27T21:11:54.992Z,97680.22
2022-07-27T21:14:58.265Z,97677.00
2022-07-27T21:18:01.355Z,97684.75
2022-07-27T21:21:04.343Z,97683.00
2022-07-27T21:24:19.970Z,97684.75
2022-07-27T21:27:23.109Z,97687.06
2022-07-27T21:30:25.909Z,97692.44
2022-07-27T21:33:28.734Z,97698.22
2022-07-27T21:36:31.575Z,97697.56
2022-07-27T21:39:36.221Z,97698.63
2022-07-27T21:42:39.576Z,97689.81
2022-07-27T21:45:47.958Z,97695.56
2022-07-27T21:48:52.625Z,97703.34
2022-07-27T21:51:55.437Z,97697.09
2022-07-27T21:54:59.927Z,97695.53
2022-07-27T21:58:02.642Z,97703.84
2022-07-27T22:01:05.393Z,97693.63
2022-07-27T22:04:09.730Z,97697.78
2022-07-27T22:07:16.794Z,97704.75
2022-07-27T22:10:23.831Z,97703.25
2022-07-27T22:13:26.636Z,97707.34
2022-07-27T22:16:29.423Z,97710.63
2022-07-27T22:19:32.259Z,97711.88
2022-07-27T22:22:35.306Z,97710.88
2022-07-27T22:25:39.565Z,97705.69
2022-07-27T22:28:42.448Z,97703.03
2022-07-27T22:31:45.238Z,97709.16
2022-07-27T22:34:47.986Z,97714.16
2022-07-27T22:37:50.909Z,97707.44
2022-07-27T22:40:54.969Z,97719.72
2022-07-27T22:43:57.678Z,97718.28
2022-07-27T22:47:00.398Z,97711.81
2022-07-27T22:50:04.299Z,97719.47
2022-07-27T22:53:07.411Z,97721.38
2022-07-27T22:56:11.473Z,97720.28
2022-07-27T22:59:14.503Z,97722.19
2022-07-27T23:02:17.251Z,97729.53
2022-07-27T23:05:20.064Z,97734.03
2022-07-27T23:08:22.832Z,97743.13
2022-07-27T23:11:26.914Z,97746.31
2022-07-27T23:14:31.031Z,97737.41
2022-07-27T23:17:33.785Z,97734.94
2022-07-27T23:20:37.288Z,97726.38
2022-07-27T23:23:49.933Z,97733.94
2022-07-27T23:26:58.209Z,97734.56
2022-07-27T23:30:01.185Z,97727.28
2022-07-27T23:33:03.914Z,97733.91
2022-07-27T23:36:06.780Z,97731.84
2022-07-27T23:39:09.587Z,97724.28
2022-07-27T23:42:13.702Z,97724.25
2022-07-27T23:45:16.543Z,97720.72
2022-07-27T23:48:19.284Z,97712.19
2022-07-27T23:51:22.063Z,97720.94
2022-07-27T23:54:24.774Z,97724.56
2022-07-27T23:57:29.342Z,97719.03
